Time;durP1;ratioP1;P1;durP2;ratioP2;P2;SDS_P1;SDS_P2;PMS_P1;PMS_P2;Temp;Humidity;BMP_temperature;BMP_pressure;BME280_temperature;BME280_humidity;BME280_pressure;Samples;Min_cycle;Max_cycle;Signal;HPM_P1;HPM_P2
2021/12/03 00:00:54;;;;;;;22.27;18.20;;;;;;;;;;4944792;29;20036;-77
2021/12/03 00:03:20;;;;;;;25.80;20.88;;;;;;;;;;4937862;29;20036;-77
2021/12/03 00:05:47;;;;;;;24.25;20.05;;;;;;;;;;4944013;29;20051;-78
2021/12/03 00:08:15;;;;;;;20.30;17.50;;;;;;;;;;4926991;29;20787;-77
2021/12/03 00:10:43;;;;;;;20.58;18.48;;;;;;;;;;4926522;29;20058;-78
2021/12/03 00:13:10;;;;;;;20.67;18.45;;;;;;;;;;4943014;29;20015;-77
2021/12/03 00:15:37;;;;;;;19.88;17.55;;;;;;;;;;4942898;29;20489;-77
2021/12/03 00:18:03;;;;;;;22.48;17.10;;;;;;;;;;4942486;29;20032;-77
2021/12/03 00:20:34;;;;;;;20.63;18.48;;;;;;;;;;4942954;29;20457;-77
2021/12/03 00:23:01;;;;;;;19.60;17.58;;;;;;;;;;4943219;29;20055;-78
2021/12/03 00:25:27;;;;;;;19.98;17.88;;;;;;;;;;4926032;29;20024;-77
2021/12/03 00:27:53;;;;;;;19.95;17.95;;;;;;;;;;4944571;29;20113;-78
2021/12/03 00:30:23;;;;;;;19.17;17.20;;;;;;;;;;4944074;29;20508;-77
2021/12/03 00:32:49;;;;;;;20.20;18.17;;;;;;;;;;4942366;29;20042;-78
2021/12/03 00:35:16;;;;;;;18.55;16.63;;;;;;;;;;4945360;29;20038;-77
2021/12/03 00:37:50;;;;;;;17.13;15.40;;;230.70;2252.80;;;;;;4948266;29;20107;-78
2021/12/03 00:40:26;;;;;;;16.33;14.23;;;230.40;2252.80;;;;;;4947524;29;20024;-78
2021/12/03 00:42:52;;;;;;;15.55;13.95;;;230.40;2252.80;;;;;;4930926;29;20032;-77
2021/12/03 00:45:19;;;;;;;14.80;13.23;;;205.60;2252.80;;;;;;4931284;29;20478;-79
2021/12/03 00:47:46;;;;;;;14.07;12.60;;;205.60;2252.80;;;;;;4948122;29;20064;-79
2021/12/03 00:50:16;;;;;;;14.02;12.63;;;205.60;2252.80;;;;;;4928880;29;20028;-78
2021/12/03 00:52:43;;;;;;;14.13;12.68;;;205.60;2252.80;;;;;;4946483;29;20524;-77
2021/12/03 00:55:11;;;;;;;14.13;12.63;;;205.60;2252.80;;;;;;4947020;29;20076;-78
2021/12/03 00:57:37;;;;;;;13.10;11.85;;;205.60;2252.80;;;;;;4929389;29;20043;-79
2021/12/03 01:00:15;;;;;;;11.90;10.77;;;205.50;2252.80;;;;;;4947444;29;20030;-78
2021/12/03 01:02:41;;;;;;;12.63;11.35;;;205.60;2252.80;;;;;;4910541;29;20091;-78
2021/12/03 01:05:08;;;;;;;11.70;10.50;;;205.50;2252.80;;;;;;4928201;29;20047;-78
2021/12/03 01:07:34;;;;;;;11.98;10.27;;;205.10;2252.80;;;;;;4942198;29;20031;-77
2021/12/03 01:10:08;;;;;;;12.82;11.52;;;205.30;2252.80;;;;;;4941275;29;20040;-78
2021/12/03 01:12:35;;;;;;;11.75;10.60;;;205.30;2252.80;;;;;;4905934;29;20027;-78
2021/12/03 01:15:02;;;;;;;12.70;11.40;;;205.30;2252.80;;;;;;4928872;29;20035;-78
2021/12/03 01:17:30;;;;;;;12.65;10.82;;;205.10;2252.80;;;;;;4947436;29;20031;-78
2021/12/03 01:19:59;;;;;;;12.32;11.13;;;205.00;2252.80;;;;;;4914456;29;20039;-78
2021/12/03 01:22:28;;;;;;;12.00;10.90;;;205.00;2252.80;;;;;;4928078;29;20027;-78
2021/12/03 01:24:53;;;;;;;12.10;10.90;;;205.00;2252.80;;;;;;4944400;29;20087;-78
2021/12/03 01:27:20;;;;;;;12.60;11.40;;;205.00;2252.80;;;;;;4943592;29;20062;-78
2021/12/03 01:29:46;;;;;;;12.48;11.27;;;205.00;2252.80;;;;;;4927456;29;20046;-78
2021/12/03 01:32:13;;;;;;;12.43;11.20;;;204.90;2252.80;;;;;;4943054;29;20042;-78
2021/12/03 01:34:40;;;;;;;11.93;10.73;;;204.80;2252.80;;;;;;4946920;29;20055;-78
2021/12/03 01:37:07;;;;;;;10.63;9.63;;;204.80;2252.80;;;;;;4929602;29;20059;-79
2021/12/03 01:39:33;;;;;;;10.93;9.93;;;204.80;2252.80;;;;;;4927552;29;20044;-78
2021/12/03 01:41:59;;;;;;;10.80;9.70;;;180.10;2252.80;;;;;;4943969;29;20488;-77
2021/12/03 01:44:26;;;;;;;11.20;10.10;;;204.80;2252.80;;;;;;4929612;29;20038;-78
2021/12/03 01:46:52;;;;;;;11.40;10.27;;;180.10;2252.80;;;;;;4946988;29;20030;-77
2021/12/03 01:49:18;;;;;;;11.98;10.77;;;180.00;2252.80;;;;;;4929675;29;20075;-79
2021/12/03 01:51:45;;;;;;;12.05;10.77;;;179.90;2252.80;;;;;;4947125;29;20027;-78
2021/12/03 01:54:16;;;;;;;12.23;10.15;;;179.90;2252.80;;;;;;4915724;29;20043;-78
2021/12/03 01:56:46;;;;;;;10.57;9.30;;;179.90;2252.80;;;;;;4932426;29;20054;-78
2021/12/03 01:59:12;;;;;;;9.82;8.82;;;179.90;2252.80;;;;;;4930410;29;20051;-78
2021/12/03 02:01:40;;;;;;;9.95;8.95;;;179.90;2252.80;;;;;;4946886;29;20031;-79
2021/12/03 02:04:06;;;;;;;9.68;8.68;;;179.30;2252.80;;;;;;4911577;29;20039;-76
2021/12/03 02:06:32;;;;;;;10.20;9.20;;;179.90;2252.80;;;;;;4947460;29;20056;-78
2021/12/03 02:08:59;;;;;;;11.13;9.63;;;180.10;2252.80;;;;;;4948717;29;20091;-77
2021/12/03 02:11:25;;;;;;;9.90;8.90;;;179.80;2252.80;;;;;;4931984;29;20035;-79
2021/12/03 02:13:52;;;;;;;9.60;8.60;;;179.60;2252.80;;;;;;4929289;29;20320;-79
2021/12/03 02:16:21;;;;;;;10.10;9.10;;;179.70;2252.80;;;;;;4926083;29;20131;-78
2021/12/03 02:18:48;;;;;;;9.50;8.57;;;179.70;2252.80;;;;;;4927133;29;20091;-79
2021/12/03 02:21:15;;;;;;;9.82;8.82;;;179.70;2252.80;;;;;;4928281;29;20039;-79
2021/12/03 02:23:43;;;;;;;9.40;8.50;;;179.70;2252.80;;;;;;4948304;29;20389;-78
2021/12/03 02:26:16;;;;;;;11.73;10.52;;;;;;;;;;4929876;29;20035;-77
2021/12/03 02:28:46;;;;;;;9.90;8.52;;;179.60;2252.80;;;;;;4944994;29;20505;-78
2021/12/03 02:31:14;;;;;;;7.97;7.18;;;179.50;2252.80;;;;;;4909488;29;20023;-78
2021/12/03 02:33:41;;;;;;;7.97;7.18;;;;;;;;;;4944628;29;20032;-77
2021/12/03 02:36:07;;;;;;;6.90;6.25;;;179.60;2252.80;;;;;;4927791;29;20027;-78
2021/12/03 02:38:34;;;;;;;7.22;6.53;;;;;;;;;;4943084;29;20038;-78
2021/12/03 02:41:01;;;;;;;6.47;5.82;;;179.60;2252.80;;;;;;4925981;29;20040;-77
2021/12/03 02:43:31;;;;;;;6.15;5.28;;;179.60;2252.80;;;;;;4937993;29;20035;-79
2021/12/03 02:46:19;;;;;;;5.97;5.35;;;179.50;2252.80;;;;;;4936416;29;20012;-77
2021/12/03 02:49:00;;;;;;;6.07;5.45;;;179.50;2252.80;;;;;;4946422;29;20038;-78
2021/12/03 02:51:27;;;;;;;5.45;4.82;;;179.30;2252.80;;;;;;4950211;29;20091;-78
2021/12/03 02:54:07;;;;;;;6.00;5.15;;;179.30;2252.80;;;;;;4937485;29;20052;-79
2021/12/03 02:56:38;;;;;;;5.47;4.88;;;;;;;;;;4934739;29;20039;-78
2021/12/03 02:59:06;;;;;;;5.75;5.22;;;;;;;;;;4955517;29;20044;-80
2021/12/03 03:01:36;;;;;;;5.53;4.85;;;179.60;2252.80;;;;;;4919966;29;20497;-78
2021/12/03 03:04:05;;;;;;;7.03;5.57;;;179.30;2252.80;;;;;;4947004;29;20031;-78
2021/12/03 03:06:31;;;;;;;6.30;5.70;;;179.20;2252.80;;;;;;4945050;28;20048;-78
2021/12/03 03:08:57;;;;;;;6.80;6.10;;;179.30;2252.80;;;;;;4948397;29;20034;-79
2021/12/03 03:11:24;;;;;;;7.75;6.78;;;179.30;2252.80;;;;;;4916523;29;20044;-78
2021/12/03 03:13:50;;;;;;;7.07;6.20;;;153.90;2252.80;;;;;;4933956;29;20083;-78
2021/12/03 03:16:29;;;;;;;7.32;5.82;;;179.20;2252.80;;;;;;4951624;29;20095;-79
2021/12/03 03:19:25;;;;;;;5.00;4.50;;;179.20;2252.80;;;;;;4922980;29;20055;-78
2021/12/03 03:21:53;;;;;;;5.57;4.13;;;154.50;2252.80;;;;;;4907257;29;20044;-79
2021/12/03 03:24:43;;;;;;;5.93;3.72;;;154.30;2252.80;;;;;;4935751;29;20058;-78
2021/12/03 03:27:45;;;;;;;6.15;4.25;;;154.30;2252.80;;;;;;4903355;29;20028;-79
2021/12/03 03:31:00;;;;;;;8.27;3.70;;;154.30;2252.80;;;;;;4934207;29;20052;-79
2021/12/03 03:33:44;;;;;;;5.70;3.80;;;154.20;2252.80;;;;;;4901299;29;20017;-80
2021/12/03 03:36:14;;;;;;;5.53;3.90;;;154.10;2252.80;;;;;;4916125;29;20036;-79
2021/12/03 03:38:42;;;;;;;4.50;4.00;;;154.10;2252.80;;;;;;4898139;29;20065;-79
2021/12/03 03:41:34;;;;;;;4.88;4.15;;;154.00;2252.80;;;;;;4912990;29;20036;-79
2021/12/03 03:44:31;;;;;;;5.43;4.40;;;154.00;2252.80;;;;;;4902761;29;20065;-79
2021/12/03 03:47:23;;;;;;;5.15;4.50;;;154.00;2252.80;;;;;;4917104;29;20021;-79
2021/12/03 03:50:17;;;;;;;5.68;4.47;;;154.00;2252.80;;;;;;4915372;29;20025;-79
2021/12/03 03:52:55;;;;;;;8.57;4.55;;;154.10;2252.80;;;;;;4918096;29;20040;-80
2021/12/03 03:55:53;;;;;;;7.43;4.65;;;154.10;2252.80;;;;;;4918725;29;20020;-80
2021/12/03 03:58:42;;;;;;;5.65;4.50;;;154.00;2252.80;;;;;;4892177;29;20049;-80
2021/12/03 04:01:28;;;;;;;6.13;3.97;;;153.80;2252.80;;;;;;4872056;29;20090;-79
2021/12/03 04:04:18;;;;;;;4.72;3.50;;;153.80;2252.80;;;;;;4876098;29;20041;-79
2021/12/03 04:07:23;;;;;;;4.07;3.28;;;153.80;2252.80;;;;;;4843501;28;20034;-79
2021/12/03 04:14:02;;;;;;;10.35;7.93;;;154.00;2252.80;;;;;;4883070;29;20047;-80
2021/12/03 04:17:11;;;;;;;10.25;7.03;;;153.80;2252.80;;;;;;4922972;29;20037;-79
2021/12/03 04:26:48;;;;;;;6.03;4.70;;;153.70;2252.80;;;;;;4835044;29;19961;-78
2021/12/03 04:29:41;;;;;;;8.82;5.72;;;153.70;2252.80;;;;;;4788277;30;20077;-79
2021/12/03 04:32:41;;;;;;;8.00;5.40;;;153.70;2252.80;;;;;;4805060;29;20051;-80
2021/12/03 04:35:25;;;;;;;8.75;5.82;;;153.70;2252.80;;;;;;4727223;30;20053;-80
2021/12/03 04:38:19;;;;;;;7.82;5.00;;;153.60;2252.80;;;;;;4733019;30;20674;-80
2021/12/03 04:41:55;;;;;;;5.78;5.18;;;153.60;2252.80;;;;;;4731257;30;20018;-80
2021/12/03 04:44:58;;;;;;;7.07;5.25;;;153.60;2252.80;;;;;;4739499;30;20041;-79
2021/12/03 04:48:17;;;;;;;7.95;6.03;;;153.60;2252.80;;;;;;4738278;30;20048;-80
2021/12/03 04:51:58;;;;;;;6.88;6.03;;;128.90;2252.80;;;;;;4706408;30;20046;-79
2021/12/03 04:54:42;;;;;;;7.45;6.15;;;153.60;2252.80;;;;;;4706819;30;20052;-80
2021/12/03 04:57:42;;;;;;;9.15;6.82;;;153.60;2252.80;;;;;;4699976;30;20034;-79
2021/12/03 05:01:01;;;;;;;8.25;7.18;;;128.90;2252.80;;;;;;4684420;30;20130;-79
2021/12/03 05:16:01;;;;;;;13.65;9.73;;;128.80;2252.80;;;;;;4996527;28;20074;-81
2021/12/03 05:19:15;;;;;;;12.65;9.27;;;128.80;2252.80;;;;;;4980997;28;20127;-79
2021/12/03 05:22:40;;;;;;;14.20;10.10;;;128.80;2252.80;;;;;;4923040;29;20017;-80
2021/12/03 05:40:20;;;;;;;17.45;10.05;;;128.40;2252.80;;;;;;5279120;23;20062;-80
2021/12/03 05:43:59;;;;;;;;;;;128.70;2252.80;;;;;;4990453;28;20038;-80
2021/12/03 05:54:13;;;;;;;17.48;11.18;;;128.80;2252.80;;;;;;4866622;29;20053;-81
2021/12/03 05:57:53;;;;;;;15.98;11.23;;;128.90;2252.80;;;;;;4829765;29;20041;-79
2021/12/03 06:03:58;;;;;;;17.30;12.45;;;128.90;2252.80;;;;;;4808430;29;20046;-80
2021/12/03 06:07:04;;;;;;;18.25;12.32;;;128.80;2252.80;;;;;;4810603;29;20011;-79
2021/12/03 06:10:14;;;;;;;16.02;11.77;;;128.90;2252.80;;;;;;4809703;30;20047;-79
2021/12/03 06:16:41;;;;;;;13.55;10.55;;;128.80;2252.80;;;;;;4793160;29;20031;-80
2021/12/03 06:20:13;;;;;;;13.73;11.02;;;128.80;2252.80;;;;;;4785404;29;20033;-80
2021/12/03 06:23:01;;;;;;;15.93;11.85;;;128.80;2252.80;;;;;;4806539;29;20054;-80
2021/12/03 06:26:13;;;;;;;15.65;11.48;;;128.70;2252.80;;;;;;4806198;29;20043;-79
2021/12/03 06:28:48;;;;;;;16.90;12.23;;;128.70;2252.80;;;;;;4741424;30;20088;-80
2021/12/03 06:36:39;;;;;;;11.30;8.35;;;154.50;2252.80;;;;;;5057090;23;20054;-79
2021/12/03 06:39:51;;;;;;;11.65;8.77;;;128.80;2252.80;;;;;;4980951;28;20026;-79
2021/12/03 06:42:22;;;;;;;13.32;10.43;;;128.80;2252.80;;;;;;5017196;28;20039;-75
2021/12/03 06:44:48;;;;;;;15.88;11.98;;;128.80;2252.80;;;;;;5090208;23;20042;-80
2021/12/03 06:47:14;;;;;;;17.15;13.18;;;128.80;2252.80;;;;;;5009990;28;20184;-77
2021/12/03 06:49:41;;;;;;;16.88;12.35;;;128.80;2252.80;;;;;;5002276;28;20042;-74
2021/12/03 06:52:10;;;;;;;18.20;12.05;;;128.90;2252.80;;;;;;4995654;28;20030;-73
2021/12/03 06:54:36;;;;;;;18.05;12.82;;;128.90;2252.80;;;;;;4998802;28;20018;-74
2021/12/03 06:57:06;;;;;;;18.67;13.40;;;128.90;2252.80;;;;;;4979100;28;20077;-74
2021/12/03 06:59:32;;;;;;;17.65;12.75;;;128.80;2252.80;;;;;;4979671;28;20062;-73
2021/12/03 07:01:59;;;;;;;34.25;22.88;;;128.90;2252.80;;;;;;4994648;28;20041;-74
2021/12/03 07:04:25;;;;;;;22.67;15.75;;;128.90;2252.80;;;;;;4996253;28;20040;-74
2021/12/03 07:09:26;;;;;;;14.48;11.77;;;128.10;2252.80;;;;;;5059348;23;20092;-77
2021/12/03 07:12:04;;;;;;;15.85;13.35;;;128.70;2252.80;;;;;;4995770;28;20026;-79
2021/12/03 07:14:40;;;;;;;15.48;11.98;;;128.80;2252.80;;;;;;5013156;28;20040;-78
2021/12/03 07:17:15;;;;;;;16.40;12.20;;;128.90;2252.80;;;;;;4986993;28;20022;-80
2021/12/03 07:19:47;;;;;;;15.32;11.48;;;128.80;2252.80;;;;;;4992100;28;20031;-79
2021/12/03 07:22:36;;;;;;;16.70;11.75;;;128.80;2252.80;;;;;;4993483;28;20038;-80
2021/12/03 07:25:07;;;;;;;17.17;11.27;;;128.80;2252.80;;;;;;4899176;29;20021;-78
2021/12/03 07:27:56;;;;;;;16.60;12.30;;;128.30;2252.80;;;;;;4878746;29;20032;-78
2021/12/03 07:30:45;;;;;;;16.58;12.40;;;128.40;2252.80;;;;;;4908743;29;20048;-78
2021/12/03 07:33:18;;;;;;;16.55;12.55;;;128.70;2252.80;;;;;;4894974;29;20092;-79
2021/12/03 07:35:47;;;;;;;14.50;11.73;;;128.50;2252.80;;;;;;4907249;29;20044;-78
2021/12/03 07:38:20;;;;;;;14.38;11.38;;;128.80;2252.80;;;;;;4910370;29;20037;-78
2021/12/03 07:41:08;;;;;;;17.77;13.70;;;128.80;2252.80;;;;;;4906097;29;20033;-78
2021/12/03 07:43:44;;;;;;;17.63;12.40;;;128.70;2252.80;;;;;;4917989;29;20049;-78
2021/12/03 07:46:20;;;;;;;16.23;12.88;;;128.90;2252.80;;;;;;4913301;29;20072;-76
2021/12/03 07:48:50;;;;;;;15.60;12.30;;;128.90;2252.80;;;;;;4895669;29;20041;-76
2021/12/03 07:51:18;;;;;;;16.67;12.90;;;128.80;2252.80;;;;;;4893099;29;20052;-77
2021/12/03 07:53:44;;;;;;;19.25;13.20;;;128.80;2252.80;;;;;;4893161;29;20033;-75
2021/12/03 07:56:09;;;;;;;14.65;12.65;;;128.80;2252.80;;;;;;4888943;29;20043;-75
2021/12/03 07:58:36;;;;;;;17.58;13.38;;;128.80;2252.80;;;;;;4882840;29;20040;-76
2021/12/03 08:01:05;;;;;;;16.08;12.38;;;128.80;2252.80;;;;;;4899699;28;20039;-75
2021/12/03 08:03:32;;;;;;;17.55;13.27;;;128.80;2252.80;;;;;;4996348;28;20431;-75
2021/12/03 08:06:03;;;;;;;17.45;13.38;;;128.80;2252.80;;;;;;4999844;28;20022;-75
2021/12/03 08:08:30;;;;;;;20.95;14.50;;;128.80;2252.80;;;;;;5001748;28;20038;-74
2021/12/03 08:11:02;;;;;;;18.20;14.45;;;128.80;2252.80;;;;;;5000593;28;20506;-75
2021/12/03 08:14:04;;;;;;;19.63;14.60;;;128.90;2252.80;;;;;;5012762;28;20027;-78
2021/12/03 08:16:40;;;;;;;22.30;16.27;;;128.80;2252.80;;;;;;4955818;28;20039;-79
2021/12/03 08:19:15;;;;;;;20.75;16.63;;;128.80;2252.80;;;;;;4998642;28;20043;-78
2021/12/03 08:21:52;;;;;;;22.93;15.83;;;128.90;2252.80;;;;;;4997448;28;20042;-78
2021/12/03 08:24:20;;;;;;;45.30;24.27;;;128.80;2252.80;;;;;;5013836;28;20504;-77
2021/12/03 08:26:51;;;;;;;29.75;18.33;;;128.90;2252.80;;;;;;4992874;28;20011;-79
2021/12/03 08:29:18;;;;;;;21.35;16.10;;;128.80;2252.80;;;;;;4942423;28;20038;-76
2021/12/03 08:31:45;;;;;;;22.25;16.42;;;128.80;2252.80;;;;;;5009953;28;20400;-77
2021/12/03 08:34:15;;;;;;;22.58;17.42;;;128.90;2252.80;;;;;;5008756;28;20022;-76
2021/12/03 08:36:46;;;;;;;25.30;17.50;;;128.80;2252.80;;;;;;5006764;28;20034;-74
2021/12/03 08:39:19;;;;;;;22.15;17.30;;;128.90;2252.80;;;;;;5010985;28;20030;-76
2021/12/03 08:41:50;;;;;;;25.65;18.98;;;128.90;2252.80;;;;;;4987302;28;20031;-76
2021/12/03 08:44:24;;;;;;;22.55;17.42;;;153.60;2252.80;;;;;;4988902;28;20038;-78
2021/12/03 08:47:06;;;;;;;25.70;20.15;;;153.60;2252.80;;;;;;4982093;28;20042;-77
2021/12/03 08:49:44;;;;;;;23.13;16.65;;;128.90;2252.80;;;;;;4958845;28;20176;-74
2021/12/03 08:54:55;;;;;;;29.60;19.40;;;153.70;2252.80;;;;;;4972611;28;20034;-75
2021/12/03 08:57:27;;;;;;;29.75;21.10;;;153.60;2252.80;;;;;;4977998;28;20039;-76
2021/12/03 08:59:56;;;;;;;23.48;17.30;;;153.70;2252.80;;;;;;4987020;28;20031;-73
2021/12/03 09:02:22;;;;;;;26.05;19.27;;;153.70;2252.80;;;;;;4978054;28;20042;-75
2021/12/03 09:04:49;;;;;;;30.77;19.83;;;153.80;2252.80;;;;;;4972695;28;20085;-75
2021/12/03 09:07:15;;;;;;;28.58;19.92;;;153.80;2252.80;;;;;;4973569;28;20039;-75
2021/12/03 09:09:41;;;;;;;23.20;18.63;;;153.80;2252.80;;;;;;4972728;28;20113;-75
2021/12/03 09:12:07;;;;;;;26.50;18.88;;;153.70;2252.80;;;;;;4978265;28;20137;-74
2021/12/03 09:14:43;;;;;;;27.17;20.35;;;153.80;2252.80;;;;;;4993976;28;20105;-75
2021/12/03 09:18:18;;;;;;;25.85;18.58;;;153.80;2252.80;;;;;;4990901;28;20146;-76
2021/12/03 09:22:53;;;;;;;30.27;21.27;;;153.80;2252.80;;;;;;4995527;28;20045;-76
2021/12/03 09:25:35;;;;;;;26.30;19.67;;;153.70;2252.80;;;;;;4994324;28;20030;-75
2021/12/03 09:28:04;;;;;;;24.60;19.38;;;153.70;2252.80;;;;;;4998494;28;20034;-78
2021/12/03 09:30:36;;;;;;;26.88;18.88;;;153.80;2252.80;;;;;;4998198;28;20026;-77
2021/12/03 09:33:45;;;;;;;25.00;19.10;;;153.80;2252.80;;;;;;5010318;28;20037;-77
2021/12/03 09:36:10;;;;;;;29.00;20.73;;;153.80;2252.80;;;;;;5015905;28;20023;-74
2021/12/03 09:38:37;;;;;;;27.73;21.38;;;153.80;2252.80;;;;;;4995332;28;20034;-77
2021/12/03 09:41:12;;;;;;;27.48;21.75;;;153.80;2252.80;;;;;;4997826;28;20484;-77
2021/12/03 09:43:52;;;;;;;28.80;22.42;;;153.80;2252.80;;;;;;4999454;28;20030;-73
2021/12/03 09:46:24;;;;;;;27.13;21.85;;;153.80;2252.80;;;;;;4996523;28;20037;-76
2021/12/03 09:51:29;;;;;;;33.05;23.30;;;153.90;2252.80;;;;;;4986966;28;20174;-77
2021/12/03 09:57:06;;;;;;;;;;;153.90;2252.80;;;;;;4902367;29;20128;-79
2021/12/03 10:13:32;;;;;;;30.60;23.70;;;154.00;2252.80;;;;;;4914676;29;20064;-75
2021/12/03 10:18:59;;;;;;;32.20;23.27;;;154.30;2252.80;;;;;;4894237;29;20199;-79
2021/12/03 10:29:43;;;;;;;37.63;24.38;;;154.20;2252.80;;;;;;4986995;28;20423;-77
2021/12/03 10:38:03;;;;;;;37.72;26.85;;;154.20;2252.80;;;;;;4991599;28;20030;-75
2021/12/03 10:48:52;;;;;;;32.22;22.40;;;154.00;2252.80;;;;;;4918738;29;20596;-76
2021/12/03 11:08:26;;;;;;;37.03;26.98;;;154.00;2252.80;;;;;;4829350;29;20164;-76
2021/12/03 11:45:13;;;;;;;24.85;15.75;;;153.90;2252.80;;;;;;4897569;29;20044;-77
2021/12/03 12:30:09;;;;;;;22.70;16.08;;;153.80;2252.80;;;;;;5296253;23;20057;31
2021/12/03 13:07:51;;;;;;;23.10;12.77;;;153.80;2252.80;;;;;;4998158;28;20048;-80
2021/12/03 13:39:22;;;;;;;18.98;11.07;;;153.90;2252.80;;;;;;4878416;29;20469;-75
2021/12/03 14:40:10;;;;;;;21.83;13.43;;;153.70;2252.80;;;;;;4958185;29;20045;-78
2021/12/03 14:48:55;;;;;;;25.30;12.32;;;153.70;2252.80;;;;;;4915437;29;20043;-78
2021/12/03 14:51:41;;;;;;;27.45;13.57;;;153.70;2252.80;;;;;;4881847;29;20080;-78
2021/12/03 14:57:49;;;;;;;50.75;22.45;;;153.70;2252.80;;;;;;4849418;29;20046;-78
2021/12/03 15:08:18;;;;;;;45.90;24.77;;;153.80;2252.80;;;;;;4853697;29;20038;-78
2021/12/03 15:13:30;;;;;;;35.28;19.48;;;153.80;2252.80;;;;;;4861950;29;20174;-78
2021/12/03 15:19:19;;;;;;;37.40;17.40;;;153.80;2252.80;;;;;;4866371;29;20046;-75
2021/12/03 15:31:46;;;;;;;26.75;16.65;;;153.90;2252.80;;;;;;4839788;29;20089;-77
2021/12/03 15:54:37;;;;;;;24.80;14.27;;;;;;;;;;4778693;30;20135;-79
2021/12/03 15:57:12;;;;;;;24.08;14.48;;;;;;;;;;4783090;29;20046;-75
2021/12/03 16:05:54;;;;;;;25.90;14.25;;;153.90;2252.80;;;;;;5005767;23;20060;-78
2021/12/03 16:08:40;;;;;;;24.63;13.20;;;153.80;2252.80;;;;;;5008246;28;20029;-79
2021/12/03 16:19:22;;;;;;;30.73;14.57;;;;;;;;;;4983848;28;20040;-76
2021/12/03 16:51:52;;;;;;;21.25;12.23;;;;;;;;;;4983887;28;20042;-80
2021/12/03 16:54:30;;;;;;;24.75;14.18;;;;;;;;;;5071420;23;20058;-75
2021/12/03 16:56:56;;;;;;;27.92;13.30;;;;;;;;;;5002506;28;20090;-75
2021/12/03 16:59:23;;;;;;;27.08;12.95;;;;;;;;;;5004585;28;20054;-75
2021/12/03 17:02:05;;;;;;;25.13;11.05;;;;;;;;;;4987440;28;20491;-76
2021/12/03 17:13:56;;;;;;;20.33;10.93;;;;;;;;;;4992595;28;20046;-75
2021/12/03 18:00:10;;;;;;;24.48;11.05;;;;;;;;;;5003035;28;20031;-77
2021/12/03 18:06:07;;;;;;;19.83;11.60;;;;;;;;;;4991635;28;20042;-78
2021/12/03 18:54:41;;;;;;;19.70;12.02;;;;;;;;;;5009426;28;20044;-79
2021/12/03 18:57:21;;;;;;;20.92;11.95;;;;;;;;;;5009638;28;20039;-79
2021/12/03 19:00:36;;;;;;;19.98;10.80;;;;;;;;;;4959940;29;20040;-79
2021/12/03 19:03:40;;;;;;;21.35;8.95;;;;;;;;;;4970971;28;20035;-79
2021/12/03 19:06:30;;;;;;;22.30;10.60;;;;;;;;;;4877363;29;20033;-79
2021/12/03 19:09:24;;;;;;;21.10;11.90;;;;;;;;;;4875243;29;20030;-80
2021/12/03 19:12:08;;;;;;;22.25;11.98;;;;;;;;;;4885886;29;20554;-79
2021/12/03 19:15:00;;;;;;;24.58;9.57;;;;;;;;;;4876819;29;20101;-78
2021/12/03 19:17:35;;;;;;;15.05;8.43;;;;;;;;;;4872011;29;20530;-79
2021/12/03 19:20:08;;;;;;;15.32;8.30;;;;;;;;;;4878571;29;20101;-78
2021/12/03 19:22:57;;;;;;;16.88;9.68;;;;;;;;;;4896213;29;20407;-78
2021/12/03 19:25:51;;;;;;;17.38;9.35;;;;;;;;;;4859686;29;20063;-78
2021/12/03 19:31:28;;;;;;;15.30;9.10;;;;;;;;;;4862107;29;20083;-79
2021/12/03 19:34:00;;;;;;;15.18;8.90;;;;;;;;;;4875853;29;20065;-79
2021/12/03 19:36:38;;;;;;;20.40;7.55;;;;;;;;;;4885658;29;20029;-79
2021/12/03 19:39:31;;;;;;;16.27;8.13;;;;;;;;;;4912045;29;20044;-79
2021/12/03 19:42:12;;;;;;;18.42;8.80;;;;;;;;;;4923775;29;20047;-78
2021/12/03 19:44:46;;;;;;;13.60;7.63;;;;;;;;;;4965380;29;20061;-79
2021/12/03 19:48:03;;;;;;;11.80;7.00;;;;;;;;;;4970613;29;20536;-79
2021/12/03 19:53:13;;;;;;;19.95;8.85;;;;;;;;;;4889507;29;20086;-79
2021/12/03 19:55:44;;;;;;;17.75;8.38;;;;;;;;;;4900701;29;20041;-78
2021/12/03 19:58:20;;;;;;;16.13;8.43;;;;;;;;;;4915005;29;20060;-79
2021/12/03 20:00:50;;;;;;;14.38;7.80;;;;;;;;;;4918095;29;20040;-79
2021/12/03 20:03:23;;;;;;;19.50;9.35;;;;;;;;;;4912138;29;20048;-78
2021/12/03 20:06:34;;;;;;;17.10;7.72;;;;;;;;;;4897450;29;20077;-79
2021/12/03 20:09:47;;;;;;;11.98;6.68;;;;;;;;;;4895626;29;20049;-78
2021/12/03 20:12:24;;;;;;;11.88;6.78;;;;;;;;;;4909362;29;20480;-79
2021/12/03 20:18:24;;;;;;;16.80;7.25;;;;;;;;;;4888726;29;20029;-77
2021/12/03 20:21:10;;;;;;;11.43;6.25;;;;;;;;;;4873921;29;20029;-78
2021/12/03 20:24:18;;;;;;;11.80;6.38;;;;;;;;;;4876502;29;20068;-77
2021/12/03 20:27:01;;;;;;;14.00;6.68;;;;;;;;;;4912563;29;20065;-76
2021/12/03 21:08:47;;;;;;;33.35;15.25;;;;;;;;;;4988944;28;20114;-80
2021/12/03 21:11:27;;;;;;;31.73;16.00;;;;;;;;;;4974591;28;20046;-79
2021/12/03 21:13:58;;;;;;;34.67;15.63;;;;;;;;;;4976651;28;20025;-79
2021/12/03 21:21:59;;;;;;;127.00;51.50;;;;;;;;;;4988720;28;20118;-78
2021/12/03 21:24:33;;;;;;;83.53;41.33;;;;;;;;;;4959776;28;20043;-78
2021/12/03 21:41:46;;;;;;;49.67;27.50;;;;;;;;;;4885140;29;20028;-79
2021/12/03 21:44:36;;;;;;;44.97;23.65;;;;;;;;;;4891834;29;20033;-79
2021/12/03 21:50:26;;;;;;;35.53;18.80;;;;;;;;;;4863980;29;20053;-79
2021/12/03 21:52:57;;;;;;;44.80;23.67;;;;;;;;;;4859076;29;20049;-79
2021/12/03 21:55:58;;;;;;;41.53;23.20;;;;;;;;;;4862156;29;20018;-79
2021/12/03 21:58:55;;;;;;;40.83;21.02;;;;;;;;;;4831632;29;20067;-79
2021/12/03 22:04:36;;;;;;;33.17;17.17;;;26.50;2201.60;;;;;;4848309;29;20065;-80
2021/12/03 22:12:37;;;;;;;28.38;14.18;;;26.20;2201.60;;;;;;4792737;29;20050;-79
2021/12/03 22:19:26;;;;;;;41.83;22.17;;;26.10;2201.60;;;;;;4722922;30;20111;-79
2021/12/03 22:23:02;;;;;;;31.20;16.92;;;26.00;2201.60;;;;;;4722753;30;20030;-79
2021/12/03 22:26:51;;;;;;;28.02;15.63;;;26.10;2201.60;;;;;;4740448;30;20048;-80
2021/12/03 22:30:09;;;;;;;31.58;15.45;;;;;;;;;;4757759;29;20017;-80
2021/12/03 22:36:15;;;;;;;25.83;14.30;;;;;;;;;;4706854;30;20097;-79
2021/12/03 22:39:14;;;;;;;28.45;15.18;;;;;;;;;;4719034;30;20042;-79
2021/12/03 23:23:06;;;;;;;31.27;16.52;;;;;;;;;;5465741;23;20035;-79
2021/12/03 23:26:28;;;;;;;27.80;14.93;;;;;;;;;;4981549;28;20011;-79
2021/12/03 23:42:21;;;;;;;23.05;12.65;;;;;;;;;;5935630;23;20090;-79
2021/12/03 23:45:07;;;;;;;24.10;13.52;;;;;;;;;;4970978;28;20034;-79
2021/12/03 23:47:40;;;;;;;28.40;14.25;;;;;;;;;;4986076;28;20062;-79
2021/12/03 23:50:28;;;;;;;25.63;13.60;;;;;;;;;;4976433;28;20119;-79
2021/12/03 23:53:19;;;;;;;27.70;13.55;;;;;;;;;;4962323;29;20016;-79
2021/12/03 23:56:19;;;;;;;25.33;14.27;;;;;;;;;;4929085;29;20064;-79
2021/12/03 23:59:05;;;;;;;29.98;16.20;;;;;;;;;;4900340;29;20025;-79
